2015 Coniston 14 Mile

1130 results found. Perform another search | Print these results

Race Number First Name Surname Gender Gender Position Category Category Position Club Gun Time Overall Position Chip Time Chip Position Tweet Share
1216 Harry Stainton Male 1 MOPEN 1 Black Combe Runners 01:20:37 1 01:20:34 1
815 Dave Pearce Male 7 M45+ 1 Leicester Coritanians 01:25:10 7 01:25:09 7
243 Gary Thomas Male 10 M40+ 1 Wolds Veterans RC 01:25:41 10 01:25:41 10
792 Robert Gray Male 21 M50+ 1 Wetherby Runners 01:27:27 21 01:27:24 21
75 Eleanor Fowler Female 1 F35+ 1 Nuneaton Harriers 01:29:02 32 01:29:01 33
172 Robert Stocks Male 53 M55+ 1 Wolds Veterans RC 01:31:26 54 01:31:23 54
1236 Pollyanne Veazey-Linskill Female 2 FOPEN 1 01:32:47 60 01:32:47 60
550 Catherine Carrdus Female 3 F40+ 1 Wesham Road Runners 01:33:39 69 01:33:36 70
1111 John Collier Male 79 M60+ 1 Wesham Road Runners 01:35:18 85 01:35:13 86
1118 Janet Kenyon Female 15 F55+ 1 01:40:50 141 01:40:50 146
248 Carol Cervenak Female 18 F50+ 1 Gateshead harriers 01:41:36 153 01:41:32 155
1113 Jonathan Comyn-Platt Male 141 M65+ 1 Saddleworth Running Club 01:42:10 160 01:41:54 161
388 Maire Irlam Female 30 F45+ 1 Fenland Running Club 01:47:28 236 01:46:58 238
488 Ian Milburn Male 234 M70+ 1 Fenland Running Club 01:49:13 270 01:48:44 269
1392 Angela Oldham Female 40 F60+ 1 East Cheshire Harriers 01:49:54 283 01:49:40 293
1002 Lou Lyness Female 41 F65+ 1 Black Combe Runners 01:49:59 287 01:49:54 296
572 John Fawkes Male 671 M75+ 1 02:35:31 1028 02:33:33 1018
1119 Gillian Thompson Female 389 F70+ 1 Walney Wind Cheetahs 02:45:30 1073 02:44:24 1074
1393 Howard Oldham Male 2 MOPEN 2 East Cheshire Harriers 01:21:58 2 01:21:58 2
508 Andy Ratcliffe Male 9 M45+ 2 Wigan & District Harriers & AC 01:25:31 9 01:25:30 9
728 Gary Dover Male 25 M50+ 2 Glaxo Hoad Hill Harriers 01:27:46 25 01:27:45 25
1313 Matt Wilson Male 26 M40+ 2 Kendal AAC 01:27:52 26 01:27:49 26
1247 David Lancaster Male 62 M55+ 2 York Acorn AC 01:33:22 64 01:32:52 61
481 Nicola Kent Female 4 F40+ 2 Loftus and Whitby AC 01:33:48 72 01:33:45 73
499 Angharad Owen Female 6 FOPEN 2 Loftus and Whitby AC 01:35:04 83 01:35:03 84
433 Jessica Marrison Female 10 F35+ 2 Barton and District AC 01:38:27 116 01:38:20 117
108 Allan Turnbull Male 125 M60+ 2 Wolds Veterans RC 01:40:37 139 01:40:33 141
1402 Helen Lawrenson Female 32 F45+ 2 Wesham Road Runners 01:48:03 245 01:47:58 256
77 Peter Greenfield Male 230 M65+ 2 Nuneaton Harriers 01:49:01 264 01:48:46 271
816 Jackie Brown Female 38 F50+ 2 Roadhoggs Leicester 01:49:27 276 01:49:20 286
613 Joyce Atherden Female 56 F55+ 2 01:53:47 357 01:52:52 356
204 YVONNE TWELVETREE Female 72 F60+ 2 Totley Athletic Club 01:56:11 412 01:55:53 426
214 David I'Anson Male 471 M70+ 2 02:04:30 603 02:03:27 607
1104 Eileen Hiller Female 211 F65+ 2 Stainland Lions Running Club 02:13:46 788 02:11:52 775
811 Frank Harrison Male 678 M75+ 2 Beverley AC 02:42:20 1059 02:41:58 1063
1343 Cees Van der Land Male 3 MOPEN 3 Tyne Bridge Harriers 01:23:30 3 01:23:30 3
640 Alex Davies Male 11 M45+ 3 Eden Runners 01:25:59 11 01:25:55 11
415 Martin Jennings Male 27 M40+ 3 Fenland Running Club 01:28:22 27 01:28:21 27
76 Eric Fowler Male 31 M50+ 3 Nuneaton Harriers 01:28:48 31 01:28:45 31
1096 Roy Tomlinson Male 71 M55+ 3 Thornton Cleveley 01:34:10 75 01:34:00 74
941 Catherine Farrow Female 5 F40+ 3 Ilkley Harriers 01:34:38 78 01:34:37 79
933 Sarah Dudgeon Female 7 FOPEN 3 Serpentine 01:35:54 89 01:35:51 91
1397 Bree Sutcliffe Female 13 F35+ 3 City of Chester Triathlon Club 01:40:05 132 01:39:53 135
841 COLIN MATHIESON Male 128 M60+ 3 FIFE AC 01:41:10 145 01:41:00 148
1074 Joanne McLeod Female 39 F45+ 3 Glaxo Hoad Hill Harriers 01:49:44 280 01:48:34 267
721 JULIE DRAPER Female 54 F50+ 3 Littlewoods Running Club 01:53:29 352 01:52:18 339
65 William Doidge Male 299 M65+ 3 Low Fell Running club 01:53:31 354 01:52:50 354
991 Christine Cox Female 73 F55+ 3 Ilkley Harriers 01:56:12 413 01:55:49 425
1102 John Armistead Male 498 M70+ 3 Dark Peak Fell Runners 02:06:24 644 02:05:15 642
746 Jane Macleod Female 176 F60+ 3 Pitreavie AAC 02:09:52 714 02:09:38 737
362 Sylvia Gittins Female 237 F65+ 3 02:17:32 834 02:16:22 832
1007 Lee Knight Male 4 MOPEN 4 Helm Hill Runners 01:23:53 4 01:23:53 4
1446 Sean Willis Male 12 M45+ 4 Saddleworth Running Club 01:26:07 12 01:26:04 12
868 Lee Barlow Male 28 M40+ 4 Wesham Road Runners 01:28:26 28 01:28:24 28
258 Rob Williamson Male 51 M50+ 4 Loftus and Whitby AC 01:31:14 52 01:31:13 53
302 Rosie Haddock Female 8 FOPEN 4 Fusion Triathlon Club 01:36:17 94 01:36:07 96
107 Peter Hutchinson Male 116 M55+ 4 Wolds Veterans RC 01:39:48 126 01:39:46 129
1384 Susan Fourie Female 12 F40+ 4 City of Chester Triathlon Club 01:40:02 130 01:39:50 132
149 Elaine Bisson Female 17 F35+ 4 Elvet Striders 01:41:04 144 01:40:43 144
313 Andrew Davies Male 167 M60+ 4 Bridgnorth Running Club 01:44:33 189 01:44:24 191
353 Dinah Jackson Female 46 F45+ 4 01:51:02 299 01:50:31 307
574 Tracey Hulme Female 55 F50+ 4 Wesham Road Runners 01:53:30 353 01:53:19 364
245 Philip charles Woodman Male 324 M65+ 4 Ripley Running Club 01:55:07 386 01:54:16 389
731 Sheila Jones Female 80 F55+ 4 Radcliffe AC 01:57:33 445 01:56:51 452
502 Mike Gill Male 536 M70+ 4 Blackhill Bounders 02:09:45 709 02:08:12 698
93 Pauline Powell Female 266 F60+ 4 02:21:47 889 02:20:26 883
518 Andrea Willbond Female 274 F65+ 4 Dragons Running Club Leeds 02:22:42 900 02:21:24 898
421 Mark Griffiths Male 5 MOPEN 5 Manchester YMCA Harriers 01:24:38 5 01:24:30 5
1081 Paul Butler Male 14 M45+ 5 Loftus and Whitby AC 01:26:19 14 01:26:18 14
1112 Darren Rodmell Male 29 M40+ 5 Beverley AC 01:28:32 29 01:28:30 30
1447 Andrew Meskimmon Male 54 M50+ 5 Dewsbury Road Runners 01:31:29 55 01:31:27 55
587 Jenny Featherstone Female 9 FOPEN 5 Totley Athletic Club 01:38:23 115 01:38:09 116
901 ROSS BICKERSTAFF Male 124 M55+ 5 Hamilton harriers 01:40:35 138 01:39:58 137
1358 Jane Holden Female 22 F40+ 5 Walney Wind Cheetahs 01:44:04 178 01:43:53 181
1017 Claire Fowler Female 25 F35+ 5 01:45:32 206 01:43:54 182
85 Tom Temple Male 207 M60+ 5 Salford Harriers 01:47:30 237 01:47:28 247
242 Vicky Thomas Female 52 F45+ 5 Wolds Veterans RC 01:52:36 333 01:52:23 343
1265 Roland Bowness Male 354 M65+ 5 salford harriers 01:56:44 429 01:56:20 434
685 Emma Morley Female 78 F50+ 5 Darlington Harriers 01:57:08 440 01:56:23 437
358 Jane Harriman Female 87 F55+ 5 Totley Athletic Club 01:58:07 463 01:57:25 470
371 John Bradley Male 567 M70+ 5 Blackpool Wyre & Fylde AC 02:12:51 770 02:11:46 773
1057 Lesley Barratt Female 276 F60+ 5 02:22:52 902 02:21:12 894
138 Jackie Walters Female 292 F65+ 5 Baildon Runners 02:24:32 925 02:23:26 930
981 Jay Bird Male 6 MOPEN 6 Ripley Running Club 01:24:47 6 01:24:45 6
483 Jason Cook Male 22 M45+ 6 Blackburn Road Runners 01:27:33 22 01:27:31 22
1345 Paul McKnespiey Male 33 M40+ 6 Carlisle & Aspatria 01:29:10 34 01:29:06 34
709 Jonathan Sinclair Male 64 M50+ 6 Ilkley Harriers 01:33:29 66 01:33:26 68
1204 Katy Walton Female 11 FOPEN 6 Elvet Striders 01:39:51 127 01:39:30 125
410 Richard Schofield Male 140 M55+ 6 01:42:05 159 01:41:36 156
637 Esther Broughton Female 23 F40+ 6 Ripley Running Club 01:44:34 190 01:44:29 194
624 Nina Fisher Female 27 F35+ 6 Wigan & District Harriers & AC 01:46:22 222 01:45:31 213
21 Paul Robinson Male 208 M60+ 6 01:47:33 238 01:47:15 243
238 Stephanie Goodchild Female 66 F45+ 6 Manchester YMCA Harriers 01:55:25 396 01:54:05 384
720 Kathryn Davies Female 90 F50+ 6 RADCLIFFE AC 01:58:42 474 01:58:00 481
964 Alan Gray Male 398 M65+ 6 Spa Striders 01:59:05 490 01:58:54 511
1137 Jean Bradley Female 122 F55+ 6 elvet striders 02:03:35 585 02:03:22 606
1232 Tony Greene Male 568 M70+ 6 Saddleworth Running Club 02:12:52 771 02:11:48 774
1225 Tricia Collins Female 282 F60+ 6 Blackhill Bounders 02:23:41 912 02:22:51 920
1103 Ann Armistead Female 311 F65+ 6 Matlock AC 02:27:43 958 02:26:27 962
1093 Michael Ainsworth Male 8 MOPEN 7 Helm Hill Runners 01:25:15 8 01:25:14 8